sensor_id;sensor_type;location;lat;lon;timestamp;P1;durP1;ratioP1;P2;durP2;ratioP2
44248;SDS011;29923;48.718;9.272;2023-02-01T00:01:29;5.45;;;2.95;;
44248;SDS011;29923;48.718;9.272;2023-02-01T00:03:54;6.05;;;3.60;;
44248;SDS011;29923;48.718;9.272;2023-02-01T00:06:20;7.03;;;3.22;;
44248;SDS011;29923;48.718;9.272;2023-02-01T00:08:45;6.40;;;3.72;;
44248;SDS011;29923;48.718;9.272;2023-02-01T00:11:11;6.82;;;3.58;;
44248;SDS011;29923;48.718;9.272;2023-02-01T00:13:38;5.82;;;2.88;;
44248;SDS011;29923;48.718;9.272;2023-02-01T00:16:06;5.78;;;3.22;;
44248;SDS011;29923;48.718;9.272;2023-02-01T00:18:32;3.67;;;2.60;;
44248;SDS011;29923;48.718;9.272;2023-02-01T00:20:58;5.45;;;3.47;;
44248;SDS011;29923;48.718;9.272;2023-02-01T00:23:23;7.47;;;3.63;;
44248;SDS011;29923;48.718;9.272;2023-02-01T00:25:49;5.78;;;2.42;;
44248;SDS011;29923;48.718;9.272;2023-02-01T00:28:14;4.72;;;2.22;;
44248;SDS011;29923;48.718;9.272;2023-02-01T00:30:39;8.18;;;3.13;;
44248;SDS011;29923;48.718;9.272;2023-02-01T00:33:04;10.32;;;3.17;;
44248;SDS011;29923;48.718;9.272;2023-02-01T00:35:30;7.07;;;3.00;;
44248;SDS011;29923;48.718;9.272;2023-02-01T00:37:55;4.63;;;2.85;;
44248;SDS011;29923;48.718;9.272;2023-02-01T00:40:23;5.03;;;3.00;;
44248;SDS011;29923;48.718;9.272;2023-02-01T00:42:48;5.15;;;3.22;;
44248;SDS011;29923;48.718;9.272;2023-02-01T00:45:14;4.90;;;3.10;;
44248;SDS011;29923;48.718;9.272;2023-02-01T00:47:39;5.05;;;2.38;;
44248;SDS011;29923;48.718;9.272;2023-02-01T00:50:04;8.15;;;2.72;;
44248;SDS011;29923;48.718;9.272;2023-02-01T00:52:30;4.65;;;3.00;;
44248;SDS011;29923;48.718;9.272;2023-02-01T00:54:55;5.72;;;3.42;;
44248;SDS011;29923;48.718;9.272;2023-02-01T00:57:21;4.32;;;2.10;;
44248;SDS011;29923;48.718;9.272;2023-02-01T00:59:46;8.52;;;2.42;;
44248;SDS011;29923;48.718;9.272;2023-02-01T01:02:11;3.85;;;2.50;;
44248;SDS011;29923;48.718;9.272;2023-02-01T01:04:39;7.47;;;3.22;;
44248;SDS011;29923;48.718;9.272;2023-02-01T01:07:04;3.70;;;1.65;;
44248;SDS011;29923;48.718;9.272;2023-02-01T01:09:30;6.57;;;2.97;;
44248;SDS011;29923;48.718;9.272;2023-02-01T01:11:55;4.43;;;2.63;;
44248;SDS011;29923;48.718;9.272;2023-02-01T01:14:20;3.10;;;2.40;;
44248;SDS011;29923;48.718;9.272;2023-02-01T01:16:46;6.80;;;2.95;;
44248;SDS011;29923;48.718;9.272;2023-02-01T01:19:11;3.42;;;2.00;;
44248;SDS011;29923;48.718;9.272;2023-02-01T01:21:36;6.32;;;2.47;;
44248;SDS011;29923;48.718;9.272;2023-02-01T01:24:02;5.47;;;2.80;;
44248;SDS011;29923;48.718;9.272;2023-02-01T01:26:28;3.97;;;2.90;;
44248;SDS011;29923;48.718;9.272;2023-02-01T01:28:55;3.97;;;2.67;;
44248;SDS011;29923;48.718;9.272;2023-02-01T01:31:21;3.83;;;2.00;;
44248;SDS011;29923;48.718;9.272;2023-02-01T01:33:47;4.18;;;2.13;;
44248;SDS011;29923;48.718;9.272;2023-02-01T01:36:16;9.48;;;2.85;;
44248;SDS011;29923;48.718;9.272;2023-02-01T01:38:42;3.35;;;2.13;;
44248;SDS011;29923;48.718;9.272;2023-02-01T01:41:08;3.72;;;2.28;;
44248;SDS011;29923;48.718;9.272;2023-02-01T01:46:20;3.60;;;2.00;;
44248;SDS011;29923;48.718;9.272;2023-02-01T01:48:51;3.92;;;2.70;;
44248;SDS011;29923;48.718;9.272;2023-02-01T01:51:21;5.38;;;2.80;;
44248;SDS011;29923;48.718;9.272;2023-02-01T01:53:50;5.78;;;2.63;;
44248;SDS011;29923;48.718;9.272;2023-02-01T01:56:26;3.20;;;2.30;;
44248;SDS011;29923;48.718;9.272;2023-02-01T01:58:53;3.75;;;2.65;;
44248;SDS011;29923;48.718;9.272;2023-02-01T02:01:18;6.47;;;2.40;;
44248;SDS011;29923;48.718;9.272;2023-02-01T02:03:44;5.22;;;2.75;;
44248;SDS011;29923;48.718;9.272;2023-02-01T02:06:15;5.47;;;2.55;;
44248;SDS011;29923;48.718;9.272;2023-02-01T02:08:45;3.75;;;2.55;;
44248;SDS011;29923;48.718;9.272;2023-02-01T02:11:12;4.57;;;2.05;;
44248;SDS011;29923;48.718;9.272;2023-02-01T02:13:40;4.13;;;2.90;;
44248;SDS011;29923;48.718;9.272;2023-02-01T02:35:06;2.70;;;1.77;;
44248;SDS011;29923;48.718;9.272;2023-02-01T02:42:53;3.80;;;2.65;;
44248;SDS011;29923;48.718;9.272;2023-02-01T02:46:01;4.15;;;2.10;;
44248;SDS011;29923;48.718;9.272;2023-02-01T02:48:52;4.82;;;2.33;;
44248;SDS011;29923;48.718;9.272;2023-02-01T02:51:24;3.35;;;2.30;;
44248;SDS011;29923;48.718;9.272;2023-02-01T02:54:14;3.25;;;1.95;;
44248;SDS011;29923;48.718;9.272;2023-02-01T02:57:00;3.08;;;2.20;;
44248;SDS011;29923;48.718;9.272;2023-02-01T02:59:45;2.53;;;1.30;;
44248;SDS011;29923;48.718;9.272;2023-02-01T03:02:31;5.07;;;2.67;;
44248;SDS011;29923;48.718;9.272;2023-02-01T03:05:16;3.50;;;1.70;;
44248;SDS011;29923;48.718;9.272;2023-02-01T03:07:55;2.15;;;1.58;;
44248;SDS011;29923;48.718;9.272;2023-02-01T03:13:02;3.83;;;2.40;;
44248;SDS011;29923;48.718;9.272;2023-02-01T03:17:58;3.47;;;2.55;;
44248;SDS011;29923;48.718;9.272;2023-02-01T03:20:25;3.03;;;2.17;;
44248;SDS011;29923;48.718;9.272;2023-02-01T03:22:52;3.53;;;2.50;;
44248;SDS011;29923;48.718;9.272;2023-02-01T03:25:21;2.78;;;1.88;;
44248;SDS011;29923;48.718;9.272;2023-02-01T03:30:24;3.85;;;2.95;;
44248;SDS011;29923;48.718;9.272;2023-02-01T03:32:52;4.25;;;2.58;;
44248;SDS011;29923;48.718;9.272;2023-02-01T03:38:18;3.35;;;2.22;;
44248;SDS011;29923;48.718;9.272;2023-02-01T03:40:51;4.28;;;2.90;;
44248;SDS011;29923;48.718;9.272;2023-02-01T03:43:21;6.22;;;2.78;;
44248;SDS011;29923;48.718;9.272;2023-02-01T03:45:49;4.22;;;2.67;;
44248;SDS011;29923;48.718;9.272;2023-02-01T03:48:17;5.05;;;2.42;;
44248;SDS011;29923;48.718;9.272;2023-02-01T03:50:44;5.18;;;2.95;;
44248;SDS011;29923;48.718;9.272;2023-02-01T03:53:17;8.48;;;3.15;;
44248;SDS011;29923;48.718;9.272;2023-02-01T03:55:43;5.57;;;2.97;;
44248;SDS011;29923;48.718;9.272;2023-02-01T03:58:16;4.32;;;2.65;;
44248;SDS011;29923;48.718;9.272;2023-02-01T04:00:57;3.50;;;2.40;;
44248;SDS011;29923;48.718;9.272;2023-02-01T04:03:24;4.43;;;2.42;;
44248;SDS011;29923;48.718;9.272;2023-02-01T04:05:50;4.32;;;1.85;;
44248;SDS011;29923;48.718;9.272;2023-02-01T04:08:16;4.90;;;2.70;;
44248;SDS011;29923;48.718;9.272;2023-02-01T04:10:41;5.55;;;3.10;;
44248;SDS011;29923;48.718;9.272;2023-02-01T04:13:07;3.03;;;2.03;;
44248;SDS011;29923;48.718;9.272;2023-02-01T04:15:32;6.43;;;2.70;;
44248;SDS011;29923;48.718;9.272;2023-02-01T04:17:59;4.43;;;2.38;;
44248;SDS011;29923;48.718;9.272;2023-02-01T04:20:24;3.20;;;2.22;;
44248;SDS011;29923;48.718;9.272;2023-02-01T04:22:50;4.57;;;2.90;;
44248;SDS011;29923;48.718;9.272;2023-02-01T04:25:15;4.97;;;2.78;;
44248;SDS011;29923;48.718;9.272;2023-02-01T04:27:42;3.78;;;2.83;;
44248;SDS011;29923;48.718;9.272;2023-02-01T04:30:07;3.95;;;2.65;;
44248;SDS011;29923;48.718;9.272;2023-02-01T04:32:35;3.53;;;2.35;;
44248;SDS011;29923;48.718;9.272;2023-02-01T04:35:03;6.00;;;2.75;;
44248;SDS011;29923;48.718;9.272;2023-02-01T04:37:28;3.20;;;2.42;;
44248;SDS011;29923;48.718;9.272;2023-02-01T04:39:54;3.63;;;2.30;;
44248;SDS011;29923;48.718;9.272;2023-02-01T04:42:19;4.15;;;2.70;;
44248;SDS011;29923;48.718;9.272;2023-02-01T04:44:45;7.95;;;2.78;;
44248;SDS011;29923;48.718;9.272;2023-02-01T04:47:10;5.72;;;2.75;;
44248;SDS011;29923;48.718;9.272;2023-02-01T04:49:36;3.90;;;2.45;;
44248;SDS011;29923;48.718;9.272;2023-02-01T04:52:01;9.35;;;2.92;;
44248;SDS011;29923;48.718;9.272;2023-02-01T04:54:26;4.03;;;2.50;;
44248;SDS011;29923;48.718;9.272;2023-02-01T04:56:52;2.45;;;1.95;;
44248;SDS011;29923;48.718;9.272;2023-02-01T04:59:17;6.30;;;2.63;;
44248;SDS011;29923;48.718;9.272;2023-02-01T05:01:42;3.22;;;2.08;;
44248;SDS011;29923;48.718;9.272;2023-02-01T05:04:07;4.88;;;2.47;;
44248;SDS011;29923;48.718;9.272;2023-02-01T05:06:33;3.08;;;1.90;;
44248;SDS011;29923;48.718;9.272;2023-02-01T05:08:58;3.50;;;2.45;;
44248;SDS011;29923;48.718;9.272;2023-02-01T05:11:23;5.15;;;1.85;;
44248;SDS011;29923;48.718;9.272;2023-02-01T05:16:33;3.83;;;2.33;;
44248;SDS011;29923;48.718;9.272;2023-02-01T05:18:58;4.10;;;2.45;;
44248;SDS011;29923;48.718;9.272;2023-02-01T05:21:24;4.55;;;1.85;;
44248;SDS011;29923;48.718;9.272;2023-02-01T05:23:49;3.47;;;2.05;;
44248;SDS011;29923;48.718;9.272;2023-02-01T05:26:33;3.50;;;2.53;;
44248;SDS011;29923;48.718;9.272;2023-02-01T05:28:58;3.20;;;2.30;;
44248;SDS011;29923;48.718;9.272;2023-02-01T05:31:24;3.20;;;2.03;;
44248;SDS011;29923;48.718;9.272;2023-02-01T05:33:49;7.47;;;2.28;;
44248;SDS011;29923;48.718;9.272;2023-02-01T05:36:14;3.53;;;2.30;;
44248;SDS011;29923;48.718;9.272;2023-02-01T05:38:40;5.05;;;2.40;;
44248;SDS011;29923;48.718;9.272;2023-02-01T05:41:05;3.15;;;2.10;;
44248;SDS011;29923;48.718;9.272;2023-02-01T05:43:31;3.38;;;2.10;;
44248;SDS011;29923;48.718;9.272;2023-02-01T05:45:56;3.35;;;2.03;;
44248;SDS011;29923;48.718;9.272;2023-02-01T05:48:21;5.45;;;2.13;;
44248;SDS011;29923;48.718;9.272;2023-02-01T05:50:46;2.92;;;1.63;;
44248;SDS011;29923;48.718;9.272;2023-02-01T05:53:12;5.95;;;2.63;;
44248;SDS011;29923;48.718;9.272;2023-02-01T05:55:37;5.55;;;2.20;;
44248;SDS011;29923;48.718;9.272;2023-02-01T05:58:03;4.40;;;1.77;;
44248;SDS011;29923;48.718;9.272;2023-02-01T06:00:29;4.00;;;2.05;;
44248;SDS011;29923;48.718;9.272;2023-02-01T06:02:54;3.97;;;2.28;;
44248;SDS011;29923;48.718;9.272;2023-02-01T06:05:20;1.08;;;0.98;;
44248;SDS011;29923;48.718;9.272;2023-02-01T06:07:45;2.35;;;1.90;;
44248;SDS011;29923;48.718;9.272;2023-02-01T06:10:11;5.35;;;1.63;;
44248;SDS011;29923;48.718;9.272;2023-02-01T06:12:37;2.08;;;1.27;;
44248;SDS011;29923;48.718;9.272;2023-02-01T06:15:02;2.65;;;1.73;;
44248;SDS011;29923;48.718;9.272;2023-02-01T06:17:28;3.13;;;1.88;;
44248;SDS011;29923;48.718;9.272;2023-02-01T06:19:54;10.27;;;1.98;;
44248;SDS011;29923;48.718;9.272;2023-02-01T06:22:19;5.63;;;2.17;;
44248;SDS011;29923;48.718;9.272;2023-02-01T06:24:44;3.88;;;2.25;;
44248;SDS011;29923;48.718;9.272;2023-02-01T06:27:10;4.80;;;2.08;;
44248;SDS011;29923;48.718;9.272;2023-02-01T06:29:35;4.70;;;2.03;;
44248;SDS011;29923;48.718;9.272;2023-02-01T06:32:00;4.93;;;2.03;;
44248;SDS011;29923;48.718;9.272;2023-02-01T06:34:26;3.13;;;1.80;;
44248;SDS011;29923;48.718;9.272;2023-02-01T06:36:51;2.50;;;1.85;;
44248;SDS011;29923;48.718;9.272;2023-02-01T06:39:17;4.90;;;2.13;;
44248;SDS011;29923;48.718;9.272;2023-02-01T06:41:45;5.10;;;2.17;;
44248;SDS011;29923;48.718;9.272;2023-02-01T06:44:12;6.18;;;2.10;;
44248;SDS011;29923;48.718;9.272;2023-02-01T06:46:37;10.48;;;2.13;;
44248;SDS011;29923;48.718;9.272;2023-02-01T06:49:02;5.30;;;2.13;;
44248;SDS011;29923;48.718;9.272;2023-02-01T06:51:27;4.45;;;2.20;;
44248;SDS011;29923;48.718;9.272;2023-02-01T06:53:56;5.15;;;2.75;;
44248;SDS011;29923;48.718;9.272;2023-02-01T06:56:21;4.10;;;1.73;;
44248;SDS011;29923;48.718;9.272;2023-02-01T06:58:47;4.32;;;1.90;;
44248;SDS011;29923;48.718;9.272;2023-02-01T07:01:13;1.90;;;1.48;;
44248;SDS011;29923;48.718;9.272;2023-02-01T07:03:39;7.80;;;2.40;;
44248;SDS011;29923;48.718;9.272;2023-02-01T07:06:05;15.05;;;2.78;;
44248;SDS011;29923;48.718;9.272;2023-02-01T07:08:31;5.65;;;2.15;;
44248;SDS011;29923;48.718;9.272;2023-02-01T07:11:17;6.22;;;2.30;;
44248;SDS011;29923;48.718;9.272;2023-02-01T07:13:43;1.98;;;1.33;;
44248;SDS011;29923;48.718;9.272;2023-02-01T07:16:10;5.57;;;2.17;;
44248;SDS011;29923;48.718;9.272;2023-02-01T07:18:37;3.47;;;1.77;;
44248;SDS011;29923;48.718;9.272;2023-02-01T07:21:03;5.28;;;2.13;;
44248;SDS011;29923;48.718;9.272;2023-02-01T07:23:28;2.17;;;1.40;;
44248;SDS011;29923;48.718;9.272;2023-02-01T07:25:54;7.28;;;2.38;;
44248;SDS011;29923;48.718;9.272;2023-02-01T07:28:24;8.40;;;2.13;;
44248;SDS011;29923;48.718;9.272;2023-02-01T07:30:49;6.13;;;2.13;;
44248;SDS011;29923;48.718;9.272;2023-02-01T07:33:21;5.05;;;2.10;;
44248;SDS011;29923;48.718;9.272;2023-02-01T07:35:47;7.25;;;2.20;;
44248;SDS011;29923;48.718;9.272;2023-02-01T07:38:14;6.07;;;2.70;;
44248;SDS011;29923;48.718;9.272;2023-02-01T07:40:39;4.80;;;2.00;;
44248;SDS011;29923;48.718;9.272;2023-02-01T07:43:05;3.80;;;1.88;;
44248;SDS011;29923;48.718;9.272;2023-02-01T07:45:32;4.65;;;2.03;;
44248;SDS011;29923;48.718;9.272;2023-02-01T07:47:58;4.80;;;1.65;;
44248;SDS011;29923;48.718;9.272;2023-02-01T07:50:23;3.67;;;2.13;;
44248;SDS011;29923;48.718;9.272;2023-02-01T07:52:49;6.45;;;2.72;;
44248;SDS011;29923;48.718;9.272;2023-02-01T07:55:14;3.03;;;2.13;;
44248;SDS011;29923;48.718;9.272;2023-02-01T07:57:39;6.60;;;2.50;;
44248;SDS011;29923;48.718;9.272;2023-02-01T08:00:05;4.30;;;2.35;;
44248;SDS011;29923;48.718;9.272;2023-02-01T08:02:49;4.18;;;2.20;;
44248;SDS011;29923;48.718;9.272;2023-02-01T08:05:15;7.97;;;2.03;;
44248;SDS011;29923;48.718;9.272;2023-02-01T08:07:40;2.65;;;1.95;;
44248;SDS011;29923;48.718;9.272;2023-02-01T08:10:05;3.38;;;2.00;;
44248;SDS011;29923;48.718;9.272;2023-02-01T08:12:35;6.80;;;1.70;;
44248;SDS011;29923;48.718;9.272;2023-02-01T08:15:01;3.03;;;1.80;;
44248;SDS011;29923;48.718;9.272;2023-02-01T08:17:26;3.08;;;1.90;;
44248;SDS011;29923;48.718;9.272;2023-02-01T08:19:53;3.42;;;2.15;;
44248;SDS011;29923;48.718;9.272;2023-02-01T08:22:18;4.60;;;2.08;;
44248;SDS011;29923;48.718;9.272;2023-02-01T08:24:44;4.05;;;2.10;;
44248;SDS011;29923;48.718;9.272;2023-02-01T08:27:09;5.22;;;2.25;;
44248;SDS011;29923;48.718;9.272;2023-02-01T08:29:34;3.78;;;1.90;;
44248;SDS011;29923;48.718;9.272;2023-02-01T08:32:00;5.13;;;2.25;;
44248;SDS011;29923;48.718;9.272;2023-02-01T08:34:25;6.97;;;2.35;;
44248;SDS011;29923;48.718;9.272;2023-02-01T08:36:52;3.92;;;2.00;;
44248;SDS011;29923;48.718;9.272;2023-02-01T08:39:22;3.17;;;2.30;;
44248;SDS011;29923;48.718;9.272;2023-02-01T08:41:47;3.38;;;2.05;;
44248;SDS011;29923;48.718;9.272;2023-02-01T08:44:32;6.85;;;2.42;;
44248;SDS011;29923;48.718;9.272;2023-02-01T08:46:58;9.05;;;2.28;;
44248;SDS011;29923;48.718;9.272;2023-02-01T08:49:23;5.07;;;2.15;;
44248;SDS011;29923;48.718;9.272;2023-02-01T08:51:49;6.30;;;2.42;;
44248;SDS011;29923;48.718;9.272;2023-02-01T08:54:14;7.35;;;2.22;;
44248;SDS011;29923;48.718;9.272;2023-02-01T08:56:39;4.45;;;1.80;;
44248;SDS011;29923;48.718;9.272;2023-02-01T08:59:05;6.10;;;2.58;;
44248;SDS011;29923;48.718;9.272;2023-02-01T09:01:30;4.32;;;2.17;;
44248;SDS011;29923;48.718;9.272;2023-02-01T09:03:55;4.47;;;2.13;;
44248;SDS011;29923;48.718;9.272;2023-02-01T09:06:21;5.25;;;1.90;;
44248;SDS011;29923;48.718;9.272;2023-02-01T09:08:46;5.55;;;2.17;;
44248;SDS011;29923;48.718;9.272;2023-02-01T09:11:16;5.75;;;2.45;;
44248;SDS011;29923;48.718;9.272;2023-02-01T09:13:42;5.55;;;2.28;;
44248;SDS011;29923;48.718;9.272;2023-02-01T09:16:08;6.75;;;2.30;;
44248;SDS011;29923;48.718;9.272;2023-02-01T09:18:34;5.72;;;2.08;;
44248;SDS011;29923;48.718;9.272;2023-02-01T09:20:59;4.18;;;1.92;;
44248;SDS011;29923;48.718;9.272;2023-02-01T09:23:29;4.70;;;1.80;;
44248;SDS011;29923;48.718;9.272;2023-02-01T09:25:54;5.75;;;2.22;;
44248;SDS011;29923;48.718;9.272;2023-02-01T09:28:24;6.25;;;2.13;;
44248;SDS011;29923;48.718;9.272;2023-02-01T09:30:49;16.63;;;4.05;;
44248;SDS011;29923;48.718;9.272;2023-02-01T09:33:14;8.15;;;1.60;;
44248;SDS011;29923;48.718;9.272;2023-02-01T09:35:42;6.68;;;1.88;;
44248;SDS011;29923;48.718;9.272;2023-02-01T09:38:07;5.22;;;2.30;;
44248;SDS011;29923;48.718;9.272;2023-02-01T09:40:33;5.13;;;1.90;;
44248;SDS011;29923;48.718;9.272;2023-02-01T09:48:19;8.10;;;2.33;;
44248;SDS011;29923;48.718;9.272;2023-02-01T09:50:54;11.13;;;2.20;;
44248;SDS011;29923;48.718;9.272;2023-02-01T09:53:31;10.70;;;2.13;;
44248;SDS011;29923;48.718;9.272;2023-02-01T09:56:12;7.18;;;2.03;;
44248;SDS011;29923;48.718;9.272;2023-02-01T09:58:47;6.18;;;1.90;;
44248;SDS011;29923;48.718;9.272;2023-02-01T10:01:25;9.88;;;2.75;;
44248;SDS011;29923;48.718;9.272;2023-02-01T10:03:51;8.77;;;2.20;;
44248;SDS011;29923;48.718;9.272;2023-02-01T10:14:38;11.30;;;2.23;;
44248;SDS011;29923;48.718;9.272;2023-02-01T10:28:28;6.30;;;2.20;;
44248;SDS011;29923;48.718;9.272;2023-02-01T10:30:57;6.78;;;2.03;;
44248;SDS011;29923;48.718;9.272;2023-02-01T10:33:24;8.60;;;2.22;;
44248;SDS011;29923;48.718;9.272;2023-02-01T10:38:39;9.90;;;2.15;;
44248;SDS011;29923;48.718;9.272;2023-02-01T10:41:18;7.30;;;1.80;;
44248;SDS011;29923;48.718;9.272;2023-02-01T10:43:46;4.57;;;1.85;;
44248;SDS011;29923;48.718;9.272;2023-02-01T10:46:14;12.13;;;2.42;;
44248;SDS011;29923;48.718;9.272;2023-02-01T10:48:39;7.93;;;2.45;;
44248;SDS011;29923;48.718;9.272;2023-02-01T10:51:06;15.25;;;2.15;;
44248;SDS011;29923;48.718;9.272;2023-02-01T10:56:06;12.07;;;2.67;;
44248;SDS011;29923;48.718;9.272;2023-02-01T10:58:32;17.60;;;2.70;;
44248;SDS011;29923;48.718;9.272;2023-02-01T11:00:59;12.32;;;2.75;;
44248;SDS011;29923;48.718;9.272;2023-02-01T11:06:27;15.65;;;2.75;;
44248;SDS011;29923;48.718;9.272;2023-02-01T11:08:54;12.73;;;2.50;;
44248;SDS011;29923;48.718;9.272;2023-02-01T11:11:23;14.50;;;3.13;;
44248;SDS011;29923;48.718;9.272;2023-02-01T11:19:20;13.13;;;2.90;;
44248;SDS011;29923;48.718;9.272;2023-02-01T11:21:52;13.73;;;2.38;;
44248;SDS011;29923;48.718;9.272;2023-02-01T11:24:32;11.20;;;2.17;;
44248;SDS011;29923;48.718;9.272;2023-02-01T11:27:00;17.08;;;3.20;;
44248;SDS011;29923;48.718;9.272;2023-02-01T11:29:29;12.85;;;3.70;;
44248;SDS011;29923;48.718;9.272;2023-02-01T11:32:01;11.10;;;2.75;;
44248;SDS011;29923;48.718;9.272;2023-02-01T11:34:37;16.10;;;3.03;;
44248;SDS011;29923;48.718;9.272;2023-02-01T11:37:04;13.13;;;2.42;;
44248;SDS011;29923;48.718;9.272;2023-02-01T11:39:30;8.50;;;2.83;;
44248;SDS011;29923;48.718;9.272;2023-02-01T11:44:31;17.05;;;2.72;;
44248;SDS011;29923;48.718;9.272;2023-02-01T11:49:55;12.75;;;2.17;;
44248;SDS011;29923;48.718;9.272;2023-02-01T11:52:26;13.10;;;2.63;;
44248;SDS011;29923;48.718;9.272;2023-02-01T12:00:26;10.55;;;2.30;;
44248;SDS011;29923;48.718;9.272;2023-02-01T12:03:05;10.23;;;2.13;;
44248;SDS011;29923;48.718;9.272;2023-02-01T12:05:52;13.43;;;2.22;;
44248;SDS011;29923;48.718;9.272;2023-02-01T12:35:38;14.20;;;2.40;;
44248;SDS011;29923;48.718;9.272;2023-02-01T12:41:01;14.02;;;2.60;;
44248;SDS011;29923;48.718;9.272;2023-02-01T12:43:36;24.58;;;2.63;;
44248;SDS011;29923;48.718;9.272;2023-02-01T12:46:09;13.43;;;2.28;;
44248;SDS011;29923;48.718;9.272;2023-02-01T12:48:40;14.63;;;1.80;;
44248;SDS011;29923;48.718;9.272;2023-02-01T12:51:15;13.77;;;2.25;;
44248;SDS011;29923;48.718;9.272;2023-02-01T12:53:46;17.63;;;2.97;;
44248;SDS011;29923;48.718;9.272;2023-02-01T12:56:34;11.40;;;2.17;;
44248;SDS011;29923;48.718;9.272;2023-02-01T12:59:36;9.23;;;2.00;;
44248;SDS011;29923;48.718;9.272;2023-02-01T13:05:04;8.15;;;1.95;;
44248;SDS011;29923;48.718;9.272;2023-02-01T13:07:42;13.20;;;1.98;;
44248;SDS011;29923;48.718;9.272;2023-02-01T13:12:57;16.17;;;3.55;;
44248;SDS011;29923;48.718;9.272;2023-02-01T13:15:30;12.50;;;2.35;;
44248;SDS011;29923;48.718;9.272;2023-02-01T13:17:58;12.63;;;2.08;;
44248;SDS011;29923;48.718;9.272;2023-02-01T13:20:28;21.40;;;2.97;;
44248;SDS011;29923;48.718;9.272;2023-02-01T13:22:59;9.40;;;2.10;;
44248;SDS011;29923;48.718;9.272;2023-02-01T13:25:41;15.60;;;2.30;;
44248;SDS011;29923;48.718;9.272;2023-02-01T13:28:25;11.20;;;2.20;;
44248;SDS011;29923;48.718;9.272;2023-02-01T13:33:49;7.97;;;1.77;;
44248;SDS011;29923;48.718;9.272;2023-02-01T13:42:20;9.60;;;3.10;;
44248;SDS011;29923;48.718;9.272;2023-02-01T13:44:52;14.80;;;3.13;;
44248;SDS011;29923;48.718;9.272;2023-02-01T13:47:43;13.95;;;3.38;;
44248;SDS011;29923;48.718;9.272;2023-02-01T13:50:20;19.35;;;4.05;;
44248;SDS011;29923;48.718;9.272;2023-02-01T13:57:45;14.88;;;2.78;;
44248;SDS011;29923;48.718;9.272;2023-02-01T14:23:57;17.05;;;2.80;;
44248;SDS011;29923;48.718;9.272;2023-02-01T14:26:49;12.77;;;2.75;;
44248;SDS011;29923;48.718;9.272;2023-02-01T14:44:55;14.40;;;3.67;;
44248;SDS011;29923;48.718;9.272;2023-02-01T14:47:41;12.85;;;2.83;;
44248;SDS011;29923;48.718;9.272;2023-02-01T14:52:33;9.40;;;2.00;;
44248;SDS011;29923;48.718;9.272;2023-02-01T14:55:02;11.93;;;2.40;;
44248;SDS011;29923;48.718;9.272;2023-02-01T14:57:30;10.90;;;2.15;;
44248;SDS011;29923;48.718;9.272;2023-02-01T15:00:04;12.68;;;3.00;;
44248;SDS011;29923;48.718;9.272;2023-02-01T15:02:34;14.27;;;2.40;;
44248;SDS011;29923;48.718;9.272;2023-02-01T15:05:00;14.25;;;3.15;;
44248;SDS011;29923;48.718;9.272;2023-02-01T15:07:25;13.90;;;2.60;;
44248;SDS011;29923;48.718;9.272;2023-02-01T15:09:51;10.85;;;2.63;;
44248;SDS011;29923;48.718;9.272;2023-02-01T15:12:22;16.67;;;2.70;;
44248;SDS011;29923;48.718;9.272;2023-02-01T15:15:14;8.88;;;2.47;;
44248;SDS011;29923;48.718;9.272;2023-02-01T15:17:39;14.20;;;3.00;;
44248;SDS011;29923;48.718;9.272;2023-02-01T15:20:22;20.80;;;3.03;;
44248;SDS011;29923;48.718;9.272;2023-02-01T15:22:59;15.10;;;3.03;;
44248;SDS011;29923;48.718;9.272;2023-02-01T15:25:27;18.77;;;2.55;;
44248;SDS011;29923;48.718;9.272;2023-02-01T15:27:56;12.45;;;2.30;;
44248;SDS011;29923;48.718;9.272;2023-02-01T15:30:26;14.13;;;2.80;;
44248;SDS011;29923;48.718;9.272;2023-02-01T15:33:03;9.70;;;1.67;;
44248;SDS011;29923;48.718;9.272;2023-02-01T15:35:41;8.18;;;1.38;;
44248;SDS011;29923;48.718;9.272;2023-02-01T15:43:34;11.13;;;2.05;;
44248;SDS011;29923;48.718;9.272;2023-02-01T15:46:03;11.32;;;2.45;;
44248;SDS011;29923;48.718;9.272;2023-02-01T15:48:41;20.52;;;2.88;;
44248;SDS011;29923;48.718;9.272;2023-02-01T15:51:24;18.33;;;2.20;;
44248;SDS011;29923;48.718;9.272;2023-02-01T15:53:54;10.23;;;2.08;;
44248;SDS011;29923;48.718;9.272;2023-02-01T15:56:32;14.32;;;2.47;;
44248;SDS011;29923;48.718;9.272;2023-02-01T15:59:00;15.25;;;3.15;;
44248;SDS011;29923;48.718;9.272;2023-02-01T16:01:27;9.02;;;1.70;;
44248;SDS011;29923;48.718;9.272;2023-02-01T16:06:51;20.05;;;3.75;;
44248;SDS011;29923;48.718;9.272;2023-02-01T16:09:19;12.75;;;1.65;;
44248;SDS011;29923;48.718;9.272;2023-02-01T16:11:57;20.45;;;3.17;;
44248;SDS011;29923;48.718;9.272;2023-02-01T16:14:24;10.43;;;2.50;;
44248;SDS011;29923;48.718;9.272;2023-02-01T16:16:50;6.50;;;1.80;;
44248;SDS011;29923;48.718;9.272;2023-02-01T16:19:15;15.32;;;2.80;;
44248;SDS011;29923;48.718;9.272;2023-02-01T16:21:41;22.75;;;2.88;;
44248;SDS011;29923;48.718;9.272;2023-02-01T16:24:06;10.48;;;2.20;;
44248;SDS011;29923;48.718;9.272;2023-02-01T16:26:32;12.75;;;2.45;;
44248;SDS011;29923;48.718;9.272;2023-02-01T16:28:58;19.40;;;3.08;;
44248;SDS011;29923;48.718;9.272;2023-02-01T16:31:27;9.85;;;2.30;;
44248;SDS011;29923;48.718;9.272;2023-02-01T16:33:55;11.55;;;1.90;;
44248;SDS011;29923;48.718;9.272;2023-02-01T16:36:20;10.43;;;2.92;;
44248;SDS011;29923;48.718;9.272;2023-02-01T16:38:46;8.32;;;2.55;;
44248;SDS011;29923;48.718;9.272;2023-02-01T16:41:14;14.77;;;3.75;;
44248;SDS011;29923;48.718;9.272;2023-02-01T16:43:41;11.98;;;2.20;;
44248;SDS011;29923;48.718;9.272;2023-02-01T16:46:08;13.85;;;3.03;;
44248;SDS011;29923;48.718;9.272;2023-02-01T16:48:39;11.30;;;2.78;;
44248;SDS011;29923;48.718;9.272;2023-02-01T16:51:09;13.32;;;2.20;;
44248;SDS011;29923;48.718;9.272;2023-02-01T16:53:37;10.60;;;2.50;;
44248;SDS011;29923;48.718;9.272;2023-02-01T16:56:13;12.20;;;3.70;;
44248;SDS011;29923;48.718;9.272;2023-02-01T16:58:40;16.38;;;2.72;;
44248;SDS011;29923;48.718;9.272;2023-02-01T17:01:07;18.90;;;3.42;;
44248;SDS011;29923;48.718;9.272;2023-02-01T17:03:33;15.00;;;2.28;;
44248;SDS011;29923;48.718;9.272;2023-02-01T17:05:58;13.52;;;2.50;;
44248;SDS011;29923;48.718;9.272;2023-02-01T17:08:28;14.90;;;3.53;;
44248;SDS011;29923;48.718;9.272;2023-02-01T17:10:56;19.33;;;3.28;;
44248;SDS011;29923;48.718;9.272;2023-02-01T17:13:21;19.75;;;2.88;;
44248;SDS011;29923;48.718;9.272;2023-02-01T17:16:19;12.57;;;3.05;;
44248;SDS011;29923;48.718;9.272;2023-02-01T17:18:47;13.15;;;3.70;;
44248;SDS011;29923;48.718;9.272;2023-02-01T17:21:17;11.63;;;2.72;;
44248;SDS011;29923;48.718;9.272;2023-02-01T17:23:43;8.40;;;1.70;;
44248;SDS011;29923;48.718;9.272;2023-02-01T17:26:10;18.05;;;3.38;;
44248;SDS011;29923;48.718;9.272;2023-02-01T17:28:35;12.90;;;2.33;;
44248;SDS011;29923;48.718;9.272;2023-02-01T17:31:01;8.90;;;2.10;;
44248;SDS011;29923;48.718;9.272;2023-02-01T17:33:27;14.18;;;3.05;;
44248;SDS011;29923;48.718;9.272;2023-02-01T17:35:55;14.15;;;4.03;;
44248;SDS011;29923;48.718;9.272;2023-02-01T17:38:22;20.13;;;3.85;;
44248;SDS011;29923;48.718;9.272;2023-02-01T17:40:48;12.30;;;2.38;;
44248;SDS011;29923;48.718;9.272;2023-02-01T17:43:14;8.43;;;2.20;;
44248;SDS011;29923;48.718;9.272;2023-02-01T17:45:51;12.75;;;2.45;;
44248;SDS011;29923;48.718;9.272;2023-02-01T17:48:18;11.57;;;2.60;;
44248;SDS011;29923;48.718;9.272;2023-02-01T17:50:45;17.15;;;3.60;;
44248;SDS011;29923;48.718;9.272;2023-02-01T17:53:14;14.90;;;3.15;;
44248;SDS011;29923;48.718;9.272;2023-02-01T17:55:42;11.18;;;1.80;;
44248;SDS011;29923;48.718;9.272;2023-02-01T17:58:12;16.35;;;2.67;;
44248;SDS011;29923;48.718;9.272;2023-02-01T18:00:39;14.73;;;3.92;;
44248;SDS011;29923;48.718;9.272;2023-02-01T18:03:05;9.82;;;2.17;;